sensor_id;sensor_type;location;lat;lon;timestamp;P1;durP1;ratioP1;P2;durP2;ratioP2
62933;SDS011;49038;47.600;19.242;2022-11-25T00:02:34;15.02;;;7.45;;
62933;SDS011;49038;47.600;19.242;2022-11-25T00:05:36;14.80;;;7.80;;
62933;SDS011;49038;47.600;19.242;2022-11-25T00:08:39;9.38;;;5.75;;
62933;SDS011;49038;47.600;19.242;2022-11-25T00:11:42;11.52;;;5.37;;
62933;SDS011;49038;47.600;19.242;2022-11-25T00:14:44;11.12;;;6.12;;
62933;SDS011;49038;47.600;19.242;2022-11-25T00:17:46;14.65;;;6.40;;
62933;SDS011;49038;47.600;19.242;2022-11-25T00:20:49;11.27;;;7.37;;
62933;SDS011;49038;47.600;19.242;2022-11-25T00:23:51;8.13;;;5.90;;
62933;SDS011;49038;47.600;19.242;2022-11-25T00:26:55;10.93;;;6.20;;
62933;SDS011;49038;47.600;19.242;2022-11-25T00:29:57;9.63;;;5.53;;
62933;SDS011;49038;47.600;19.242;2022-11-25T00:32:59;10.60;;;6.00;;
62933;SDS011;49038;47.600;19.242;2022-11-25T00:36:02;7.37;;;5.30;;
62933;SDS011;49038;47.600;19.242;2022-11-25T00:39:17;14.07;;;6.75;;
62933;SDS011;49038;47.600;19.242;2022-11-25T00:42:20;13.00;;;6.47;;
62933;SDS011;49038;47.600;19.242;2022-11-25T00:45:41;10.73;;;7.47;;
62933;SDS011;49038;47.600;19.242;2022-11-25T00:48:44;11.60;;;7.37;;
62933;SDS011;49038;47.600;19.242;2022-11-25T00:51:46;13.27;;;6.00;;
62933;SDS011;49038;47.600;19.242;2022-11-25T00:54:48;9.23;;;5.15;;
62933;SDS011;49038;47.600;19.242;2022-11-25T00:57:51;8.68;;;5.35;;
62933;SDS011;49038;47.600;19.242;2022-11-25T01:00:53;7.93;;;5.05;;
62933;SDS011;49038;47.600;19.242;2022-11-25T01:03:55;16.98;;;6.65;;
62933;SDS011;49038;47.600;19.242;2022-11-25T01:06:58;10.30;;;6.65;;
62933;SDS011;49038;47.600;19.242;2022-11-25T01:10:01;8.52;;;5.57;;
62933;SDS011;49038;47.600;19.242;2022-11-25T01:13:03;10.55;;;5.20;;
62933;SDS011;49038;47.600;19.242;2022-11-25T01:16:06;9.93;;;5.68;;
62933;SDS011;49038;47.600;19.242;2022-11-25T01:19:11;8.52;;;5.90;;
62933;SDS011;49038;47.600;19.242;2022-11-25T01:22:14;11.20;;;6.93;;
62933;SDS011;49038;47.600;19.242;2022-11-25T01:25:16;8.52;;;6.18;;
62933;SDS011;49038;47.600;19.242;2022-11-25T01:28:18;6.05;;;4.28;;
62933;SDS011;49038;47.600;19.242;2022-11-25T01:31:21;15.55;;;6.43;;
62933;SDS011;49038;47.600;19.242;2022-11-25T01:34:25;10.38;;;6.20;;
62933;SDS011;49038;47.600;19.242;2022-11-25T01:37:28;16.25;;;5.75;;
62933;SDS011;49038;47.600;19.242;2022-11-25T01:40:30;8.57;;;6.18;;
62933;SDS011;49038;47.600;19.242;2022-11-25T01:43:32;7.68;;;6.50;;
62933;SDS011;49038;47.600;19.242;2022-11-25T01:49:44;15.70;;;5.97;;
62933;SDS011;49038;47.600;19.242;2022-11-25T01:52:48;8.30;;;5.00;;
62933;SDS011;49038;47.600;19.242;2022-11-25T01:55:53;6.40;;;4.97;;
62933;SDS011;49038;47.600;19.242;2022-11-25T01:58:57;10.30;;;5.43;;
62933;SDS011;49038;47.600;19.242;2022-11-25T02:02:00;5.90;;;4.43;;
62933;SDS011;49038;47.600;19.242;2022-11-25T02:05:06;8.55;;;4.80;;
62933;SDS011;49038;47.600;19.242;2022-11-25T02:08:09;11.70;;;6.00;;
62933;SDS011;49038;47.600;19.242;2022-11-25T02:11:13;6.87;;;5.25;;
62933;SDS011;49038;47.600;19.242;2022-11-25T02:14:16;9.18;;;6.37;;
62933;SDS011;49038;47.600;19.242;2022-11-25T02:17:19;6.85;;;5.80;;
62933;SDS011;49038;47.600;19.242;2022-11-25T02:20:21;9.20;;;5.35;;
62933;SDS011;49038;47.600;19.242;2022-11-25T02:23:27;6.60;;;5.37;;
62933;SDS011;49038;47.600;19.242;2022-11-25T02:26:34;8.43;;;5.12;;
62933;SDS011;49038;47.600;19.242;2022-11-25T02:29:36;8.32;;;6.25;;
62933;SDS011;49038;47.600;19.242;2022-11-25T02:32:43;9.02;;;5.12;;
62933;SDS011;49038;47.600;19.242;2022-11-25T02:35:47;6.00;;;4.50;;
62933;SDS011;49038;47.600;19.242;2022-11-25T02:38:52;9.38;;;5.55;;
62933;SDS011;49038;47.600;19.242;2022-11-25T02:41:56;9.20;;;6.05;;
62933;SDS011;49038;47.600;19.242;2022-11-25T02:44:59;8.57;;;5.65;;
62933;SDS011;49038;47.600;19.242;2022-11-25T02:48:01;9.70;;;5.62;;
62933;SDS011;49038;47.600;19.242;2022-11-25T02:51:04;8.88;;;6.07;;
62933;SDS011;49038;47.600;19.242;2022-11-25T02:54:06;5.75;;;4.55;;
62933;SDS011;49038;47.600;19.242;2022-11-25T02:57:09;7.47;;;5.37;;
62933;SDS011;49038;47.600;19.242;2022-11-25T03:00:11;12.35;;;6.32;;
62933;SDS011;49038;47.600;19.242;2022-11-25T03:03:14;9.38;;;6.40;;
62933;SDS011;49038;47.600;19.242;2022-11-25T03:06:17;9.48;;;6.93;;
62933;SDS011;49038;47.600;19.242;2022-11-25T03:09:19;20.98;;;9.55;;
62933;SDS011;49038;47.600;19.242;2022-11-25T03:12:21;16.70;;;7.12;;
62933;SDS011;49038;47.600;19.242;2022-11-25T03:15:24;24.35;;;7.78;;
62933;SDS011;49038;47.600;19.242;2022-11-25T03:18:26;8.55;;;5.93;;
62933;SDS011;49038;47.600;19.242;2022-11-25T03:21:28;10.30;;;6.57;;
62933;SDS011;49038;47.600;19.242;2022-11-25T03:24:31;5.30;;;3.95;;
62933;SDS011;49038;47.600;19.242;2022-11-25T03:27:34;6.32;;;5.65;;
62933;SDS011;49038;47.600;19.242;2022-11-25T03:30:37;6.93;;;5.35;;
62933;SDS011;49038;47.600;19.242;2022-11-25T03:33:39;11.10;;;5.68;;
62933;SDS011;49038;47.600;19.242;2022-11-25T03:36:41;9.10;;;7.00;;
62933;SDS011;49038;47.600;19.242;2022-11-25T03:39:44;12.73;;;6.20;;
62933;SDS011;49038;47.600;19.242;2022-11-25T03:42:46;15.35;;;7.10;;
62933;SDS011;49038;47.600;19.242;2022-11-25T03:45:49;9.23;;;6.37;;
62933;SDS011;49038;47.600;19.242;2022-11-25T03:48:51;7.10;;;6.05;;
62933;SDS011;49038;47.600;19.242;2022-11-25T03:51:53;7.05;;;5.85;;
62933;SDS011;49038;47.600;19.242;2022-11-25T03:54:55;8.85;;;5.65;;
62933;SDS011;49038;47.600;19.242;2022-11-25T03:57:58;7.18;;;4.72;;
62933;SDS011;49038;47.600;19.242;2022-11-25T04:01:00;5.75;;;4.55;;
62933;SDS011;49038;47.600;19.242;2022-11-25T04:04:03;9.70;;;6.53;;
62933;SDS011;49038;47.600;19.242;2022-11-25T04:07:05;7.32;;;4.72;;
62933;SDS011;49038;47.600;19.242;2022-11-25T04:10:07;4.20;;;3.85;;
62933;SDS011;49038;47.600;19.242;2022-11-25T04:13:10;12.43;;;5.70;;
62933;SDS011;49038;47.600;19.242;2022-11-25T04:16:15;5.78;;;5.20;;
62933;SDS011;49038;47.600;19.242;2022-11-25T04:19:21;5.70;;;4.50;;
62933;SDS011;49038;47.600;19.242;2022-11-25T04:22:23;10.57;;;6.25;;
62933;SDS011;49038;47.600;19.242;2022-11-25T04:25:25;11.20;;;5.25;;
62933;SDS011;49038;47.600;19.242;2022-11-25T04:28:27;7.43;;;5.00;;
62933;SDS011;49038;47.600;19.242;2022-11-25T04:31:30;11.57;;;4.97;;
62933;SDS011;49038;47.600;19.242;2022-11-25T04:34:32;5.87;;;3.58;;
62933;SDS011;49038;47.600;19.242;2022-11-25T04:37:34;4.32;;;3.58;;
62933;SDS011;49038;47.600;19.242;2022-11-25T04:40:37;6.95;;;4.37;;
62933;SDS011;49038;47.600;19.242;2022-11-25T04:43:39;10.35;;;6.50;;
62933;SDS011;49038;47.600;19.242;2022-11-25T04:46:41;12.35;;;6.10;;
62933;SDS011;49038;47.600;19.242;2022-11-25T04:49:44;10.45;;;7.10;;
62933;SDS011;49038;47.600;19.242;2022-11-25T04:52:47;13.82;;;7.07;;
62933;SDS011;49038;47.600;19.242;2022-11-25T04:55:49;9.30;;;5.97;;
62933;SDS011;49038;47.600;19.242;2022-11-25T04:58:51;7.68;;;5.78;;
62933;SDS011;49038;47.600;19.242;2022-11-25T05:02:13;7.82;;;5.82;;
62933;SDS011;49038;47.600;19.242;2022-11-25T05:05:20;20.08;;;7.20;;
62933;SDS011;49038;47.600;19.242;2022-11-25T05:08:22;11.30;;;6.55;;
62933;SDS011;49038;47.600;19.242;2022-11-25T05:11:24;8.75;;;6.43;;
62933;SDS011;49038;47.600;19.242;2022-11-25T05:14:26;11.93;;;5.05;;
62933;SDS011;49038;47.600;19.242;2022-11-25T05:17:30;7.53;;;5.90;;
62933;SDS011;49038;47.600;19.242;2022-11-25T05:20:33;14.82;;;8.88;;
62933;SDS011;49038;47.600;19.242;2022-11-25T05:23:35;20.95;;;9.82;;
62933;SDS011;49038;47.600;19.242;2022-11-25T05:26:37;21.60;;;11.70;;
62933;SDS011;49038;47.600;19.242;2022-11-25T05:29:39;13.95;;;7.85;;
62933;SDS011;49038;47.600;19.242;2022-11-25T05:32:42;24.77;;;13.00;;
62933;SDS011;49038;47.600;19.242;2022-11-25T05:35:55;20.85;;;12.93;;
62933;SDS011;49038;47.600;19.242;2022-11-25T05:38:59;19.05;;;12.52;;
62933;SDS011;49038;47.600;19.242;2022-11-25T05:42:01;15.43;;;10.93;;
62933;SDS011;49038;47.600;19.242;2022-11-25T05:45:04;11.70;;;7.12;;
62933;SDS011;49038;47.600;19.242;2022-11-25T05:48:06;12.90;;;8.07;;
62933;SDS011;49038;47.600;19.242;2022-11-25T05:51:09;12.35;;;8.23;;
62933;SDS011;49038;47.600;19.242;2022-11-25T05:54:11;12.73;;;7.28;;
62933;SDS011;49038;47.600;19.242;2022-11-25T05:57:13;20.15;;;13.68;;
62933;SDS011;49038;47.600;19.242;2022-11-25T06:00:16;25.42;;;12.75;;
62933;SDS011;49038;47.600;19.242;2022-11-25T06:03:24;22.75;;;16.25;;
62933;SDS011;49038;47.600;19.242;2022-11-25T06:06:28;24.77;;;15.25;;
62933;SDS011;49038;47.600;19.242;2022-11-25T06:09:30;28.92;;;17.27;;
62933;SDS011;49038;47.600;19.242;2022-11-25T06:12:32;15.50;;;10.32;;
62933;SDS011;49038;47.600;19.242;2022-11-25T06:15:39;21.02;;;11.57;;
62933;SDS011;49038;47.600;19.242;2022-11-25T06:18:43;23.95;;;14.07;;
62933;SDS011;49038;47.600;19.242;2022-11-25T06:21:45;22.23;;;12.25;;
62933;SDS011;49038;47.600;19.242;2022-11-25T06:24:47;21.27;;;11.75;;
62933;SDS011;49038;47.600;19.242;2022-11-25T06:28:01;19.65;;;10.55;;
62933;SDS011;49038;47.600;19.242;2022-11-25T06:31:20;14.05;;;9.48;;
62933;SDS011;49038;47.600;19.242;2022-11-25T06:34:24;19.27;;;10.15;;
62933;SDS011;49038;47.600;19.242;2022-11-25T06:37:26;16.15;;;10.60;;
62933;SDS011;49038;47.600;19.242;2022-11-25T06:40:28;18.33;;;10.20;;
62933;SDS011;49038;47.600;19.242;2022-11-25T06:43:31;18.17;;;9.07;;
62933;SDS011;49038;47.600;19.242;2022-11-25T06:46:33;20.85;;;11.63;;
62933;SDS011;49038;47.600;19.242;2022-11-25T06:49:35;25.52;;;11.98;;
62933;SDS011;49038;47.600;19.242;2022-11-25T06:52:38;16.40;;;11.15;;
62933;SDS011;49038;47.600;19.242;2022-11-25T06:55:40;9.43;;;6.55;;
62933;SDS011;49038;47.600;19.242;2022-11-25T06:58:42;13.85;;;8.90;;
62933;SDS011;49038;47.600;19.242;2022-11-25T07:01:45;19.45;;;10.05;;
62933;SDS011;49038;47.600;19.242;2022-11-25T07:04:48;19.62;;;12.85;;
62933;SDS011;49038;47.600;19.242;2022-11-25T07:07:50;18.08;;;11.27;;
62933;SDS011;49038;47.600;19.242;2022-11-25T07:10:52;17.02;;;13.98;;
62933;SDS011;49038;47.600;19.242;2022-11-25T07:13:56;25.65;;;12.00;;
62933;SDS011;49038;47.600;19.242;2022-11-25T07:16:59;14.35;;;9.73;;
62933;SDS011;49038;47.600;19.242;2022-11-25T07:20:01;17.02;;;9.88;;
62933;SDS011;49038;47.600;19.242;2022-11-25T07:23:04;14.73;;;9.77;;
62933;SDS011;49038;47.600;19.242;2022-11-25T07:29:12;21.15;;;14.60;;
62933;SDS011;49038;47.600;19.242;2022-11-25T07:32:35;27.00;;;14.80;;
62933;SDS011;49038;47.600;19.242;2022-11-25T07:35:37;32.63;;;12.68;;
62933;SDS011;49038;47.600;19.242;2022-11-25T07:38:40;24.27;;;11.90;;
62933;SDS011;49038;47.600;19.242;2022-11-25T07:41:48;25.45;;;13.68;;
62933;SDS011;49038;47.600;19.242;2022-11-25T07:44:51;28.83;;;17.35;;
62933;SDS011;49038;47.600;19.242;2022-11-25T07:47:53;35.05;;;18.00;;
62933;SDS011;49038;47.600;19.242;2022-11-25T07:50:55;38.53;;;20.83;;
62933;SDS011;49038;47.600;19.242;2022-11-25T07:53:58;32.40;;;17.42;;
62933;SDS011;49038;47.600;19.242;2022-11-25T07:57:01;37.80;;;16.83;;
62933;SDS011;49038;47.600;19.242;2022-11-25T08:00:04;24.05;;;13.20;;
62933;SDS011;49038;47.600;19.242;2022-11-25T08:03:07;27.52;;;12.63;;
62933;SDS011;49038;47.600;19.242;2022-11-25T08:06:11;19.17;;;9.63;;
62933;SDS011;49038;47.600;19.242;2022-11-25T08:09:15;14.05;;;7.12;;
62933;SDS011;49038;47.600;19.242;2022-11-25T08:12:21;16.80;;;7.62;;
62933;SDS011;49038;47.600;19.242;2022-11-25T08:15:24;12.27;;;7.80;;
62933;SDS011;49038;47.600;19.242;2022-11-25T08:18:26;13.52;;;7.45;;
62933;SDS011;49038;47.600;19.242;2022-11-25T08:21:29;15.75;;;7.95;;
62933;SDS011;49038;47.600;19.242;2022-11-25T08:24:31;13.77;;;6.95;;
62933;SDS011;49038;47.600;19.242;2022-11-25T08:27:33;15.70;;;7.43;;
62933;SDS011;49038;47.600;19.242;2022-11-25T08:30:35;13.93;;;6.90;;
62933;SDS011;49038;47.600;19.242;2022-11-25T08:33:37;20.05;;;10.88;;
62933;SDS011;49038;47.600;19.242;2022-11-25T08:36:40;11.15;;;6.93;;
62933;SDS011;49038;47.600;19.242;2022-11-25T08:39:49;14.05;;;7.05;;
62933;SDS011;49038;47.600;19.242;2022-11-25T08:42:54;13.23;;;6.82;;
62933;SDS011;49038;47.600;19.242;2022-11-25T08:45:56;8.02;;;5.57;;
62933;SDS011;49038;47.600;19.242;2022-11-25T08:48:58;9.23;;;6.25;;
62933;SDS011;49038;47.600;19.242;2022-11-25T08:52:01;16.92;;;5.32;;
62933;SDS011;49038;47.600;19.242;2022-11-25T08:55:03;7.95;;;5.15;;
62933;SDS011;49038;47.600;19.242;2022-11-25T08:58:05;8.52;;;5.20;;
62933;SDS011;49038;47.600;19.242;2022-11-25T09:01:12;8.93;;;4.62;;
62933;SDS011;49038;47.600;19.242;2022-11-25T09:04:14;9.43;;;4.37;;
62933;SDS011;49038;47.600;19.242;2022-11-25T09:07:16;7.03;;;3.67;;
62933;SDS011;49038;47.600;19.242;2022-11-25T09:10:20;7.18;;;4.03;;
62933;SDS011;49038;47.600;19.242;2022-11-25T09:13:22;11.32;;;4.55;;
62933;SDS011;49038;47.600;19.242;2022-11-25T09:16:25;10.50;;;4.87;;
62933;SDS011;49038;47.600;19.242;2022-11-25T09:19:27;9.98;;;5.12;;
62933;SDS011;49038;47.600;19.242;2022-11-25T09:22:30;6.53;;;3.45;;
62933;SDS011;49038;47.600;19.242;2022-11-25T09:25:33;6.50;;;4.37;;
62933;SDS011;49038;47.600;19.242;2022-11-25T09:28:36;7.95;;;4.07;;
62933;SDS011;49038;47.600;19.242;2022-11-25T09:31:38;9.05;;;5.32;;
62933;SDS011;49038;47.600;19.242;2022-11-25T09:34:41;13.40;;;5.15;;
62933;SDS011;49038;47.600;19.242;2022-11-25T09:37:43;7.97;;;4.95;;
62933;SDS011;49038;47.600;19.242;2022-11-25T09:43:53;8.13;;;4.55;;
62933;SDS011;49038;47.600;19.242;2022-11-25T09:47:46;5.05;;;2.62;;
62933;SDS011;49038;47.600;19.242;2022-11-25T09:51:08;4.35;;;2.78;;
62933;SDS011;49038;47.600;19.242;2022-11-25T09:54:20;6.20;;;3.90;;
62933;SDS011;49038;47.600;19.242;2022-11-25T10:01:00;6.40;;;3.22;;
62933;SDS011;49038;47.600;19.242;2022-11-25T10:04:10;8.25;;;3.90;;
62933;SDS011;49038;47.600;19.242;2022-11-25T10:07:20;7.70;;;3.67;;
62933;SDS011;49038;47.600;19.242;2022-11-25T10:10:29;9.10;;;3.72;;
62933;SDS011;49038;47.600;19.242;2022-11-25T10:20:34;8.13;;;3.97;;
62933;SDS011;49038;47.600;19.242;2022-11-25T10:23:38;9.10;;;4.22;;
62933;SDS011;49038;47.600;19.242;2022-11-25T10:26:41;7.68;;;4.32;;
62933;SDS011;49038;47.600;19.242;2022-11-25T10:29:46;9.25;;;4.87;;
62933;SDS011;49038;47.600;19.242;2022-11-25T10:36:19;10.03;;;4.73;;
62933;SDS011;49038;47.600;19.242;2022-11-25T10:39:24;7.62;;;4.72;;
62933;SDS011;49038;47.600;19.242;2022-11-25T10:42:30;9.85;;;5.00;;
62933;SDS011;49038;47.600;19.242;2022-11-25T10:45:37;11.75;;;4.80;;
62933;SDS011;49038;47.600;19.242;2022-11-25T10:48:58;7.37;;;4.62;;
62933;SDS011;49038;47.600;19.242;2022-11-25T10:52:10;6.35;;;4.03;;
62933;SDS011;49038;47.600;19.242;2022-11-25T10:55:14;11.15;;;4.93;;
62933;SDS011;49038;47.600;19.242;2022-11-25T10:58:25;8.60;;;4.07;;
62933;SDS011;49038;47.600;19.242;2022-11-25T11:01:31;7.87;;;5.00;;
62933;SDS011;49038;47.600;19.242;2022-11-25T11:04:34;7.15;;;4.22;;
62933;SDS011;49038;47.600;19.242;2022-11-25T11:07:41;6.22;;;4.05;;
62933;SDS011;49038;47.600;19.242;2022-11-25T11:10:46;9.95;;;4.47;;
62933;SDS011;49038;47.600;19.242;2022-11-25T11:13:58;8.75;;;4.32;;
62933;SDS011;49038;47.600;19.242;2022-11-25T11:17:32;9.35;;;3.95;;
62933;SDS011;49038;47.600;19.242;2022-11-25T11:20:37;8.07;;;4.12;;
62933;SDS011;49038;47.600;19.242;2022-11-25T11:23:47;5.90;;;4.25;;
62933;SDS011;49038;47.600;19.242;2022-11-25T11:27:37;7.43;;;4.30;;
62933;SDS011;49038;47.600;19.242;2022-11-25T11:30:27;8.57;;;4.03;;
62933;SDS011;49038;47.600;19.242;2022-11-25T11:33:36;7.85;;;3.97;;
62933;SDS011;49038;47.600;19.242;2022-11-25T11:50:11;12.20;;;5.37;;
62933;SDS011;49038;47.600;19.242;2022-11-25T11:56:55;8.85;;;5.57;;
62933;SDS011;49038;47.600;19.242;2022-11-25T12:00:10;6.32;;;3.78;;
62933;SDS011;49038;47.600;19.242;2022-11-25T12:03:21;9.25;;;4.68;;
62933;SDS011;49038;47.600;19.242;2022-11-25T12:06:25;7.07;;;4.40;;
62933;SDS011;49038;47.600;19.242;2022-11-25T12:09:30;8.50;;;4.60;;
62933;SDS011;49038;47.600;19.242;2022-11-25T12:12:44;8.82;;;5.22;;
62933;SDS011;49038;47.600;19.242;2022-11-25T12:15:56;11.38;;;4.72;;
62933;SDS011;49038;47.600;19.242;2022-11-25T12:19:03;9.25;;;5.40;;
62933;SDS011;49038;47.600;19.242;2022-11-25T12:22:19;8.30;;;4.65;;
62933;SDS011;49038;47.600;19.242;2022-11-25T12:25:37;11.15;;;5.05;;
62933;SDS011;49038;47.600;19.242;2022-11-25T12:28:47;14.13;;;6.03;;
62933;SDS011;49038;47.600;19.242;2022-11-25T12:31:56;15.63;;;6.93;;
62933;SDS011;49038;47.600;19.242;2022-11-25T12:35:10;10.57;;;6.10;;
62933;SDS011;49038;47.600;19.242;2022-11-25T12:38:27;12.32;;;6.65;;
62933;SDS011;49038;47.600;19.242;2022-11-25T12:41:40;18.50;;;8.73;;
62933;SDS011;49038;47.600;19.242;2022-11-25T12:48:24;14.85;;;8.20;;
62933;SDS011;49038;47.600;19.242;2022-11-25T12:51:33;8.77;;;5.60;;
62933;SDS011;49038;47.600;19.242;2022-11-25T13:05:57;8.55;;;5.25;;
62933;SDS011;49038;47.600;19.242;2022-11-25T13:08:54;13.95;;;4.90;;
62933;SDS011;49038;47.600;19.242;2022-11-25T13:18:26;7.28;;;4.07;;
62933;SDS011;49038;47.600;19.242;2022-11-25T13:21:30;6.85;;;3.50;;
62933;SDS011;49038;47.600;19.242;2022-11-25T13:24:33;9.40;;;4.18;;
62933;SDS011;49038;47.600;19.242;2022-11-25T13:30:42;7.85;;;4.40;;
62933;SDS011;49038;47.600;19.242;2022-11-25T13:36:48;6.18;;;3.72;;
62933;SDS011;49038;47.600;19.242;2022-11-25T13:40:10;8.80;;;5.25;;
62933;SDS011;49038;47.600;19.242;2022-11-25T13:43:20;8.27;;;4.62;;
62933;SDS011;49038;47.600;19.242;2022-11-25T13:46:26;7.55;;;4.28;;
62933;SDS011;49038;47.600;19.242;2022-11-25T13:49:41;10.00;;;4.03;;
62933;SDS011;49038;47.600;19.242;2022-11-25T13:59:32;4.25;;;3.25;;
62933;SDS011;49038;47.600;19.242;2022-11-25T14:02:38;5.93;;;4.07;;
62933;SDS011;49038;47.600;19.242;2022-11-25T14:22:57;11.10;;;6.05;;
62933;SDS011;49038;47.600;19.242;2022-11-25T14:26:03;16.08;;;7.03;;
62933;SDS011;49038;47.600;19.242;2022-11-25T14:33:03;8.77;;;4.82;;
62933;SDS011;49038;47.600;19.242;2022-11-25T14:36:10;9.13;;;4.80;;
62933;SDS011;49038;47.600;19.242;2022-11-25T14:39:34;10.05;;;4.65;;
62933;SDS011;49038;47.600;19.242;2022-11-25T14:42:41;9.70;;;4.65;;
62933;SDS011;49038;47.600;19.242;2022-11-25T14:45:45;32.95;;;14.60;;
62933;SDS011;49038;47.600;19.242;2022-11-25T14:48:58;23.30;;;10.13;;
62933;SDS011;49038;47.600;19.242;2022-11-25T14:52:18;24.80;;;10.35;;
62933;SDS011;49038;47.600;19.242;2022-11-25T14:55:26;39.13;;;14.18;;
62933;SDS011;49038;47.600;19.242;2022-11-25T14:58:30;43.22;;;16.20;;
62933;SDS011;49038;47.600;19.242;2022-11-25T15:01:33;42.20;;;17.12;;
62933;SDS011;49038;47.600;19.242;2022-11-25T15:04:39;42.00;;;15.77;;
62933;SDS011;49038;47.600;19.242;2022-11-25T15:07:43;38.78;;;16.30;;
62933;SDS011;49038;47.600;19.242;2022-11-25T15:10:56;69.18;;;28.17;;
62933;SDS011;49038;47.600;19.242;2022-11-25T15:14:05;121.85;;;44.83;;
62933;SDS011;49038;47.600;19.242;2022-11-25T15:17:08;55.80;;;24.90;;
62933;SDS011;49038;47.600;19.242;2022-11-25T15:20:28;44.25;;;18.50;;
62933;SDS011;49038;47.600;19.242;2022-11-25T15:23:36;32.53;;;13.68;;
62933;SDS011;49038;47.600;19.242;2022-11-25T15:26:38;25.48;;;10.90;;
62933;SDS011;49038;47.600;19.242;2022-11-25T15:29:41;19.25;;;8.93;;
62933;SDS011;49038;47.600;19.242;2022-11-25T15:32:44;39.45;;;19.77;;
62933;SDS011;49038;47.600;19.242;2022-11-25T15:35:46;39.92;;;18.73;;
62933;SDS011;49038;47.600;19.242;2022-11-25T15:38:48;38.80;;;21.15;;
62933;SDS011;49038;47.600;19.242;2022-11-25T15:45:16;55.50;;;24.33;;
62933;SDS011;49038;47.600;19.242;2022-11-25T15:51:40;66.90;;;25.23;;
62933;SDS011;49038;47.600;19.242;2022-11-25T15:54:53;75.80;;;31.67;;
62933;SDS011;49038;47.600;19.242;2022-11-25T15:58:01;59.28;;;25.65;;
62933;SDS011;49038;47.600;19.242;2022-11-25T16:04:20;45.03;;;19.50;;
62933;SDS011;49038;47.600;19.242;2022-11-25T16:07:23;44.20;;;21.05;;
62933;SDS011;49038;47.600;19.242;2022-11-25T16:13:33;42.17;;;18.80;;
62933;SDS011;49038;47.600;19.242;2022-11-25T16:16:37;56.37;;;23.08;;
62933;SDS011;49038;47.600;19.242;2022-11-25T16:19:45;46.28;;;22.10;;
62933;SDS011;49038;47.600;19.242;2022-11-25T16:22:49;51.53;;;24.45;;
62933;SDS011;49038;47.600;19.242;2022-11-25T16:25:54;43.20;;;22.13;;
62933;SDS011;49038;47.600;19.242;2022-11-25T16:28:59;52.15;;;24.67;;
62933;SDS011;49038;47.600;19.242;2022-11-25T16:32:16;43.87;;;20.23;;
62933;SDS011;49038;47.600;19.242;2022-11-25T16:35:37;34.63;;;17.70;;
62933;SDS011;49038;47.600;19.242;2022-11-25T16:38:39;36.63;;;20.35;;
62933;SDS011;49038;47.600;19.242;2022-11-25T16:41:41;24.48;;;13.20;;
62933;SDS011;49038;47.600;19.242;2022-11-25T16:44:48;29.02;;;14.32;;
62933;SDS011;49038;47.600;19.242;2022-11-25T16:47:51;25.42;;;14.90;;
62933;SDS011;49038;47.600;19.242;2022-11-25T16:50:54;41.20;;;18.05;;
62933;SDS011;49038;47.600;19.242;2022-11-25T16:53:56;35.08;;;17.70;;
62933;SDS011;49038;47.600;19.242;2022-11-25T16:56:58;42.45;;;17.45;;
62933;SDS011;49038;47.600;19.242;2022-11-25T17:00:03;39.13;;;19.80;;
62933;SDS011;49038;47.600;19.242;2022-11-25T17:03:10;46.58;;;20.98;;
62933;SDS011;49038;47.600;19.242;2022-11-25T17:06:20;67.57;;;29.20;;
62933;SDS011;49038;47.600;19.242;2022-11-25T17:09:24;111.70;;;34.53;;
62933;SDS011;49038;47.600;19.242;2022-11-25T17:12:28;55.85;;;26.20;;
62933;SDS011;49038;47.600;19.242;2022-11-25T17:15:32;105.32;;;35.53;;
62933;SDS011;49038;47.600;19.242;2022-11-25T17:18:36;72.62;;;32.67;;
62933;SDS011;49038;47.600;19.242;2022-11-25T17:21:38;72.15;;;32.10;;
62933;SDS011;49038;47.600;19.242;2022-11-25T17:24:41;47.15;;;23.80;;
62933;SDS011;49038;47.600;19.242;2022-11-25T17:27:43;34.13;;;17.02;;
62933;SDS011;49038;47.600;19.242;2022-11-25T17:30:49;22.75;;;12.63;;
62933;SDS011;49038;47.600;19.242;2022-11-25T17:33:51;24.92;;;15.40;;
62933;SDS011;49038;47.600;19.242;2022-11-25T17:36:54;31.37;;;15.70;;
62933;SDS011;49038;47.600;19.242;2022-11-25T17:39:56;15.57;;;10.95;;
62933;SDS011;49038;47.600;19.242;2022-11-25T17:42:58;20.55;;;13.82;;
62933;SDS011;49038;47.600;19.242;2022-11-25T17:46:01;17.80;;;10.88;;
62933;SDS011;49038;47.600;19.242;2022-11-25T17:49:04;11.88;;;8.40;;
62933;SDS011;49038;47.600;19.242;2022-11-25T17:52:07;19.48;;;7.72;;
62933;SDS011;49038;47.600;19.242;2022-11-25T17:55:09;10.82;;;7.70;;
62933;SDS011;49038;47.600;19.242;2022-11-25T17:58:13;25.10;;;10.40;;
62933;SDS011;49038;47.600;19.242;2022-11-25T18:01:16;18.25;;;8.95;;
62933;SDS011;49038;47.600;19.242;2022-11-25T18:04:23;5.07;;;3.35;;
62933;SDS011;49038;47.600;19.242;2022-11-25T18:07:27;10.50;;;7.12;;
62933;SDS011;49038;47.600;19.242;2022-11-25T18:10:29;16.20;;;8.40;;
62933;SDS011;49038;47.600;19.242;2022-11-25T18:13:35;14.82;;;9.10;;
62933;SDS011;49038;47.600;19.242;2022-11-25T18:16:39;28.87;;;10.95;;
62933;SDS011;49038;47.600;19.242;2022-11-25T18:19:43;22.10;;;11.40;;
62933;SDS011;49038;47.600;19.242;2022-11-25T18:22:52;11.25;;;8.60;;
62933;SDS011;49038;47.600;19.242;2022-11-25T18:25:55;11.70;;;7.90;;
62933;SDS011;49038;47.600;19.242;2022-11-25T18:29:00;18.77;;;9.90;;
62933;SDS011;49038;47.600;19.242;2022-11-25T18:32:03;28.48;;;11.98;;
62933;SDS011;49038;47.600;19.242;2022-11-25T18:35:25;14.13;;;6.95;;
62933;SDS011;49038;47.600;19.242;2022-11-25T18:38:36;17.95;;;8.68;;
62933;SDS011;49038;47.600;19.242;2022-11-25T18:41:39;19.92;;;10.88;;
62933;SDS011;49038;47.600;19.242;2022-11-25T18:44:42;19.67;;;9.77;;
62933;SDS011;49038;47.600;19.242;2022-11-25T18:47:45;19.67;;;10.88;;
62933;SDS011;49038;47.600;19.242;2022-11-25T18:50:49;12.93;;;7.80;;
62933;SDS011;49038;47.600;19.242;2022-11-25T18:53:52;23.10;;;11.07;;
62933;SDS011;49038;47.600;19.242;2022-11-25T18:56:54;9.45;;;8.00;;
62933;SDS011;49038;47.600;19.242;2022-11-25T18:59:57;17.02;;;9.52;;
62933;SDS011;49038;47.600;19.242;2022-11-25T19:03:20;21.33;;;13.10;;
62933;SDS011;49038;47.600;19.242;2022-11-25T19:06:25;21.45;;;9.80;;
62933;SDS011;49038;47.600;19.242;2022-11-25T19:09:30;19.58;;;9.68;;
62933;SDS011;49038;47.600;19.242;2022-11-25T19:12:33;28.58;;;10.18;;
62933;SDS011;49038;47.600;19.242;2022-11-25T19:15:36;29.83;;;14.73;;
62933;SDS011;49038;47.600;19.242;2022-11-25T19:18:39;31.95;;;13.95;;
62933;SDS011;49038;47.600;19.242;2022-11-25T19:21:41;15.07;;;9.35;;
62933;SDS011;49038;47.600;19.242;2022-11-25T19:24:44;23.15;;;11.23;;
62933;SDS011;49038;47.600;19.242;2022-11-25T19:27:56;28.12;;;10.50;;
62933;SDS011;49038;47.600;19.242;2022-11-25T19:31:00;34.35;;;15.63;;
62933;SDS011;49038;47.600;19.242;2022-11-25T19:34:05;46.63;;;21.87;;
62933;SDS011;49038;47.600;19.242;2022-11-25T19:37:11;23.35;;;11.05;;
62933;SDS011;49038;47.600;19.242;2022-11-25T19:40:19;20.05;;;9.27;;
62933;SDS011;49038;47.600;19.242;2022-11-25T19:43:23;15.25;;;9.50;;
62933;SDS011;49038;47.600;19.242;2022-11-25T19:46:28;24.87;;;10.27;;
62933;SDS011;49038;47.600;19.242;2022-11-25T19:49:52;19.62;;;11.40;;
62933;SDS011;49038;47.600;19.242;2022-11-25T19:52:55;24.65;;;13.13;;